METAR AND TAF INFORMATION
METAR FOR ZSNJ
ADDS - METARS form results

(2206 UTC 20 February 2020)
Data provider http://aviationweather.gov/metar/data/
 
Forecast for: ZSNJ (NANJING/LUKOU , CN)
Text: TAF ZSNJ 202105Z 2100/2124 27003MPS 3000 HZ FEW030 TX16/2107Z TN04/2121Z
Forecast period: 0000 UTC 21 February 2020 to 0000 UTC 22 February 2020
Forecast type: FROM: standard forecast or significant change
Winds: from the W (270 degrees) at 7 MPH (6 knots; 3.1 m/s)
Visibility: 1.86 miles (2.99 km)
Ceiling: at least 12,000 feet AGL
Clouds: few clouds at 3000 feet AGL
Weather: HZ  (haze)

 AIRPORT MAP

 RUNWAY INFORMATION
Runway 06 Runway length 11811 ft Runway width 148 ft
Runway elevation 43 ft Runway displaced threshold 0 ft Runway heading 58
Runway 24 Runway length 11811 ft Runway width 148 ft
Runway elevation 39 ft Runway displaced threshold 0 ft Runway heading 238

 AIRPORT FREQUENCIES
Type APP Name NANJING AP Frequency 119.25 MHZ
Type ATIS Name ATIS Frequency 126.25 MHZ
Type GND Name NANJING GN Frequency 121.7 MHZ
Type TWR Name NANJING TW Frequency 118.85 MHZ

 AIRPORT NEAR NAVIGATION AIDS
Type NDB Name Lishui Frequency 297 KHZ
Type NDB Name Qunli Frequency 276 KHZ
Type NDB Name Xiaodanyang Frequency 440 KHZ
Type VOR-DME Name Nanjing Frequency 112000 KHZ



Powered by Virtual Airlines Manager [v2.6.2]